sensor_id;sensor_type;location;lat;lon;timestamp;P1;durP1;ratioP1;P2;durP2;ratioP2
1174;SDS011;576;48.418;10.074;2022-12-20T00:01:29;8.33;;;7.60;;
1174;SDS011;576;48.418;10.074;2022-12-20T00:03:59;8.00;;;7.30;;
1174;SDS011;576;48.418;10.074;2022-12-20T00:06:32;8.53;;;7.83;;
1174;SDS011;576;48.418;10.074;2022-12-20T00:09:01;7.47;;;6.77;;
1174;SDS011;576;48.418;10.074;2022-12-20T00:11:30;8.47;;;7.70;;
1174;SDS011;576;48.418;10.074;2022-12-20T00:13:59;9.00;;;8.20;;
1174;SDS011;576;48.418;10.074;2022-12-20T00:16:28;8.20;;;7.50;;
1174;SDS011;576;48.418;10.074;2022-12-20T00:18:57;8.40;;;7.70;;
1174;SDS011;576;48.418;10.074;2022-12-20T00:21:27;8.87;;;8.07;;
1174;SDS011;576;48.418;10.074;2022-12-20T00:23:56;8.93;;;8.13;;
1174;SDS011;576;48.418;10.074;2022-12-20T00:26:25;9.00;;;8.10;;
1174;SDS011;576;48.418;10.074;2022-12-20T00:28:55;8.13;;;7.50;;
1174;SDS011;576;48.418;10.074;2022-12-20T00:31:24;9.53;;;8.63;;
1174;SDS011;576;48.418;10.074;2022-12-20T00:33:55;9.27;;;8.43;;
1174;SDS011;576;48.418;10.074;2022-12-20T00:36:25;8.90;;;8.00;;
1174;SDS011;576;48.418;10.074;2022-12-20T00:38:54;9.30;;;8.43;;
1174;SDS011;576;48.418;10.074;2022-12-20T00:41:24;8.80;;;8.00;;
1174;SDS011;576;48.418;10.074;2022-12-20T00:43:53;9.10;;;8.30;;
1174;SDS011;576;48.418;10.074;2022-12-20T00:46:21;8.17;;;7.50;;
1174;SDS011;576;48.418;10.074;2022-12-20T00:48:51;8.60;;;7.90;;
1174;SDS011;576;48.418;10.074;2022-12-20T00:51:22;10.43;;;9.53;;
1174;SDS011;576;48.418;10.074;2022-12-20T00:53:53;7.70;;;7.03;;
1174;SDS011;576;48.418;10.074;2022-12-20T00:56:21;9.07;;;8.27;;
1174;SDS011;576;48.418;10.074;2022-12-20T00:58:53;10.30;;;9.30;;
1174;SDS011;576;48.418;10.074;2022-12-20T01:01:24;8.10;;;7.40;;
1174;SDS011;576;48.418;10.074;2022-12-20T01:03:56;8.20;;;7.47;;
1174;SDS011;576;48.418;10.074;2022-12-20T01:06:26;8.87;;;8.07;;
1174;SDS011;576;48.418;10.074;2022-12-20T01:08:54;8.83;;;7.97;;
1174;SDS011;576;48.418;10.074;2022-12-20T01:11:23;7.83;;;7.20;;
1174;SDS011;576;48.418;10.074;2022-12-20T01:13:54;8.97;;;8.03;;
1174;SDS011;576;48.418;10.074;2022-12-20T01:16:24;9.07;;;8.20;;
1174;SDS011;576;48.418;10.074;2022-12-20T01:18:54;7.80;;;7.07;;
1174;SDS011;576;48.418;10.074;2022-12-20T01:21:23;8.70;;;8.00;;
1174;SDS011;576;48.418;10.074;2022-12-20T01:23:54;9.27;;;8.47;;
1174;SDS011;576;48.418;10.074;2022-12-20T01:26:24;8.27;;;7.57;;
1174;SDS011;576;48.418;10.074;2022-12-20T01:28:55;8.90;;;8.00;;
1174;SDS011;576;48.418;10.074;2022-12-20T01:31:24;8.50;;;7.80;;
1174;SDS011;576;48.418;10.074;2022-12-20T01:33:54;9.07;;;8.17;;
1174;SDS011;576;48.418;10.074;2022-12-20T01:36:25;8.40;;;7.60;;
1174;SDS011;576;48.418;10.074;2022-12-20T01:38:57;8.63;;;7.83;;
1174;SDS011;576;48.418;10.074;2022-12-20T01:41:26;7.87;;;7.17;;
1174;SDS011;576;48.418;10.074;2022-12-20T01:43:57;7.87;;;7.27;;
1174;SDS011;576;48.418;10.074;2022-12-20T01:46:30;9.30;;;8.50;;
1174;SDS011;576;48.418;10.074;2022-12-20T01:49:00;9.10;;;8.30;;
1174;SDS011;576;48.418;10.074;2022-12-20T01:51:35;9.03;;;8.23;;
1174;SDS011;576;48.418;10.074;2022-12-20T01:54:09;8.90;;;8.00;;
1174;SDS011;576;48.418;10.074;2022-12-20T01:56:42;8.60;;;7.70;;
1174;SDS011;576;48.418;10.074;2022-12-20T01:59:14;9.00;;;8.20;;
1174;SDS011;576;48.418;10.074;2022-12-20T02:01:43;8.30;;;7.50;;
1174;SDS011;576;48.418;10.074;2022-12-20T02:04:11;8.90;;;8.10;;
1174;SDS011;576;48.418;10.074;2022-12-20T02:06:42;9.27;;;8.37;;
1174;SDS011;576;48.418;10.074;2022-12-20T02:09:12;9.33;;;8.27;;
1174;SDS011;576;48.418;10.074;2022-12-20T02:11:45;8.63;;;7.87;;
1174;SDS011;576;48.418;10.074;2022-12-20T02:14:30;9.30;;;8.37;;
1174;SDS011;576;48.418;10.074;2022-12-20T02:17:11;8.90;;;8.20;;
1174;SDS011;576;48.418;10.074;2022-12-20T02:22:51;7.97;;;7.37;;
1174;SDS011;576;48.418;10.074;2022-12-20T02:25:40;9.20;;;8.40;;
1174;SDS011;576;48.418;10.074;2022-12-20T02:28:19;9.30;;;8.50;;
1174;SDS011;576;48.418;10.074;2022-12-20T02:30:59;9.10;;;8.30;;
1174;SDS011;576;48.418;10.074;2022-12-20T02:33:34;8.63;;;7.83;;
1174;SDS011;576;48.418;10.074;2022-12-20T02:36:02;8.33;;;7.63;;
1174;SDS011;576;48.418;10.074;2022-12-20T02:38:31;9.60;;;8.63;;
1174;SDS011;576;48.418;10.074;2022-12-20T02:41:01;9.17;;;8.37;;
1174;SDS011;576;48.418;10.074;2022-12-20T02:43:32;8.70;;;7.90;;
1174;SDS011;576;48.418;10.074;2022-12-20T02:46:23;8.67;;;7.97;;
1174;SDS011;576;48.418;10.074;2022-12-20T02:48:53;9.00;;;8.20;;
1174;SDS011;576;48.418;10.074;2022-12-20T02:51:24;8.60;;;7.90;;
1174;SDS011;576;48.418;10.074;2022-12-20T02:53:55;8.10;;;7.47;;
1174;SDS011;576;48.418;10.074;2022-12-20T02:56:26;9.20;;;8.50;;
1174;SDS011;576;48.418;10.074;2022-12-20T02:59:00;8.80;;;8.00;;
1174;SDS011;576;48.418;10.074;2022-12-20T03:01:35;8.30;;;7.60;;
1174;SDS011;576;48.418;10.074;2022-12-20T03:04:07;8.83;;;8.07;;
1174;SDS011;576;48.418;10.074;2022-12-20T03:06:37;8.57;;;7.87;;
1174;SDS011;576;48.418;10.074;2022-12-20T03:09:06;8.90;;;8.20;;
1174;SDS011;576;48.418;10.074;2022-12-20T03:11:35;8.97;;;8.27;;
1174;SDS011;576;48.418;10.074;2022-12-20T03:14:04;8.60;;;7.93;;
1174;SDS011;576;48.418;10.074;2022-12-20T03:16:33;9.20;;;8.30;;
1174;SDS011;576;48.418;10.074;2022-12-20T03:19:08;10.23;;;9.33;;
1174;SDS011;576;48.418;10.074;2022-12-20T03:21:36;8.80;;;8.10;;
1174;SDS011;576;48.418;10.074;2022-12-20T03:24:05;9.63;;;8.63;;
1174;SDS011;576;48.418;10.074;2022-12-20T03:26:33;9.10;;;8.30;;
1174;SDS011;576;48.418;10.074;2022-12-20T03:29:02;9.47;;;8.57;;
1174;SDS011;576;48.418;10.074;2022-12-20T03:31:31;8.50;;;7.80;;
1174;SDS011;576;48.418;10.074;2022-12-20T03:34:01;9.97;;;9.10;;
1174;SDS011;576;48.418;10.074;2022-12-20T03:36:30;9.67;;;8.77;;
1174;SDS011;576;48.418;10.074;2022-12-20T03:39:00;10.00;;;9.10;;
1174;SDS011;576;48.418;10.074;2022-12-20T03:41:33;10.53;;;9.63;;
1174;SDS011;576;48.418;10.074;2022-12-20T03:44:02;8.50;;;7.90;;
1174;SDS011;576;48.418;10.074;2022-12-20T03:46:30;8.17;;;7.47;;
1174;SDS011;576;48.418;10.074;2022-12-20T03:49:00;9.37;;;8.57;;
1174;SDS011;576;48.418;10.074;2022-12-20T03:51:28;9.50;;;8.70;;
1174;SDS011;576;48.418;10.074;2022-12-20T03:53:57;9.00;;;8.30;;
1174;SDS011;576;48.418;10.074;2022-12-20T03:56:41;9.90;;;8.90;;
1174;SDS011;576;48.418;10.074;2022-12-20T03:59:09;10.23;;;9.30;;
1174;SDS011;576;48.418;10.074;2022-12-20T04:01:38;9.00;;;8.20;;
1174;SDS011;576;48.418;10.074;2022-12-20T04:04:08;9.80;;;9.00;;
1174;SDS011;576;48.418;10.074;2022-12-20T04:06:37;10.87;;;9.77;;
1174;SDS011;576;48.418;10.074;2022-12-20T04:09:05;10.33;;;9.50;;
1174;SDS011;576;48.418;10.074;2022-12-20T04:11:40;9.63;;;8.83;;
1174;SDS011;576;48.418;10.074;2022-12-20T04:14:12;9.17;;;8.20;;
1174;SDS011;576;48.418;10.074;2022-12-20T04:16:41;10.57;;;9.67;;
1174;SDS011;576;48.418;10.074;2022-12-20T04:19:11;10.07;;;9.27;;
1174;SDS011;576;48.418;10.074;2022-12-20T04:21:43;10.03;;;9.10;;
1174;SDS011;576;48.418;10.074;2022-12-20T04:24:13;10.47;;;9.50;;
1174;SDS011;576;48.418;10.074;2022-12-20T04:27:03;9.83;;;8.97;;
1174;SDS011;576;48.418;10.074;2022-12-20T04:29:32;9.80;;;8.90;;
1174;SDS011;576;48.418;10.074;2022-12-20T04:32:01;10.40;;;9.40;;
1174;SDS011;576;48.418;10.074;2022-12-20T04:34:32;9.37;;;8.57;;
1174;SDS011;576;48.418;10.074;2022-12-20T04:37:00;9.60;;;8.60;;
1174;SDS011;576;48.418;10.074;2022-12-20T04:39:38;10.20;;;9.30;;
1174;SDS011;576;48.418;10.074;2022-12-20T04:42:29;9.77;;;8.90;;
1174;SDS011;576;48.418;10.074;2022-12-20T04:44:58;9.60;;;8.70;;
1174;SDS011;576;48.418;10.074;2022-12-20T04:47:28;8.80;;;8.00;;
1174;SDS011;576;48.418;10.074;2022-12-20T04:49:58;8.67;;;7.97;;
1174;SDS011;576;48.418;10.074;2022-12-20T04:52:27;10.03;;;9.23;;
1174;SDS011;576;48.418;10.074;2022-12-20T04:55:28;9.33;;;8.53;;
1174;SDS011;576;48.418;10.074;2022-12-20T04:57:57;11.20;;;9.77;;
1174;SDS011;576;48.418;10.074;2022-12-20T05:00:34;10.80;;;9.87;;
1174;SDS011;576;48.418;10.074;2022-12-20T05:03:13;10.00;;;9.10;;
1174;SDS011;576;48.418;10.074;2022-12-20T05:05:45;10.30;;;9.30;;
1174;SDS011;576;48.418;10.074;2022-12-20T05:08:14;10.00;;;9.10;;
1174;SDS011;576;48.418;10.074;2022-12-20T05:10:44;10.30;;;9.40;;
1174;SDS011;576;48.418;10.074;2022-12-20T05:13:13;13.27;;;9.40;;
1174;SDS011;576;48.418;10.074;2022-12-20T05:15:43;10.60;;;9.70;;
1174;SDS011;576;48.418;10.074;2022-12-20T05:18:11;11.13;;;10.13;;
1174;SDS011;576;48.418;10.074;2022-12-20T05:20:56;10.67;;;9.67;;
1174;SDS011;576;48.418;10.074;2022-12-20T05:23:46;10.20;;;9.40;;
1174;SDS011;576;48.418;10.074;2022-12-20T05:26:55;10.40;;;9.43;;
1174;SDS011;576;48.418;10.074;2022-12-20T05:29:24;10.30;;;9.30;;
1174;SDS011;576;48.418;10.074;2022-12-20T05:31:53;10.07;;;9.10;;
1174;SDS011;576;48.418;10.074;2022-12-20T05:34:21;9.77;;;8.97;;
1174;SDS011;576;48.418;10.074;2022-12-20T05:36:53;9.47;;;8.67;;
1174;SDS011;576;48.418;10.074;2022-12-20T05:39:25;10.20;;;9.20;;
1174;SDS011;576;48.418;10.074;2022-12-20T05:41:57;9.50;;;8.70;;
1174;SDS011;576;48.418;10.074;2022-12-20T05:44:26;9.27;;;8.57;;
1174;SDS011;576;48.418;10.074;2022-12-20T05:46:56;9.03;;;8.23;;
1174;SDS011;576;48.418;10.074;2022-12-20T05:49:28;10.60;;;9.60;;
1174;SDS011;576;48.418;10.074;2022-12-20T05:52:00;9.57;;;8.57;;
1174;SDS011;576;48.418;10.074;2022-12-20T05:54:29;9.57;;;8.67;;
1174;SDS011;576;48.418;10.074;2022-12-20T05:57:29;9.27;;;8.37;;
1174;SDS011;576;48.418;10.074;2022-12-20T05:59:57;10.20;;;9.23;;
1174;SDS011;576;48.418;10.074;2022-12-20T06:02:25;9.13;;;8.33;;
1174;SDS011;576;48.418;10.074;2022-12-20T06:05:00;10.40;;;9.50;;
1174;SDS011;576;48.418;10.074;2022-12-20T06:07:30;9.97;;;9.07;;
1174;SDS011;576;48.418;10.074;2022-12-20T06:09:59;9.83;;;9.03;;
1174;SDS011;576;48.418;10.074;2022-12-20T06:12:45;9.80;;;8.80;;
1174;SDS011;576;48.418;10.074;2022-12-20T06:15:14;9.37;;;8.57;;
1174;SDS011;576;48.418;10.074;2022-12-20T06:17:43;9.57;;;8.77;;
1174;SDS011;576;48.418;10.074;2022-12-20T06:20:11;9.80;;;9.00;;
1174;SDS011;576;48.418;10.074;2022-12-20T06:22:44;8.97;;;8.17;;
1174;SDS011;576;48.418;10.074;2022-12-20T06:25:14;8.80;;;8.00;;
1174;SDS011;576;48.418;10.074;2022-12-20T06:27:43;8.63;;;7.93;;
1174;SDS011;576;48.418;10.074;2022-12-20T06:30:14;9.20;;;8.30;;
1174;SDS011;576;48.418;10.074;2022-12-20T06:33:11;9.40;;;8.60;;
1174;SDS011;576;48.418;10.074;2022-12-20T06:35:40;9.23;;;8.43;;
1174;SDS011;576;48.418;10.074;2022-12-20T06:38:10;9.07;;;8.37;;
1174;SDS011;576;48.418;10.074;2022-12-20T06:40:38;10.03;;;9.13;;
1174;SDS011;576;48.418;10.074;2022-12-20T06:43:06;10.40;;;9.30;;
1174;SDS011;576;48.418;10.074;2022-12-20T06:45:35;9.83;;;8.93;;
1174;SDS011;576;48.418;10.074;2022-12-20T06:48:08;10.20;;;9.20;;
1174;SDS011;576;48.418;10.074;2022-12-20T06:50:37;9.93;;;9.03;;
1174;SDS011;576;48.418;10.074;2022-12-20T06:53:06;11.00;;;9.90;;
1174;SDS011;576;48.418;10.074;2022-12-20T06:55:36;10.60;;;9.70;;
1174;SDS011;576;48.418;10.074;2022-12-20T06:58:06;9.60;;;8.70;;
1174;SDS011;576;48.418;10.074;2022-12-20T07:00:36;9.40;;;8.60;;
1174;SDS011;576;48.418;10.074;2022-12-20T07:03:04;10.03;;;9.10;;
1174;SDS011;576;48.418;10.074;2022-12-20T07:05:32;10.73;;;9.40;;
1174;SDS011;576;48.418;10.074;2022-12-20T07:08:01;9.97;;;9.10;;
1174;SDS011;576;48.418;10.074;2022-12-20T07:10:29;10.03;;;9.10;;
1174;SDS011;576;48.418;10.074;2022-12-20T07:12:59;10.10;;;9.13;;
1174;SDS011;576;48.418;10.074;2022-12-20T07:15:27;10.53;;;9.53;;
1174;SDS011;576;48.418;10.074;2022-12-20T07:17:55;9.67;;;8.50;;
1174;SDS011;576;48.418;10.074;2022-12-20T07:20:25;10.00;;;9.13;;
1174;SDS011;576;48.418;10.074;2022-12-20T07:22:53;10.20;;;9.30;;
1174;SDS011;576;48.418;10.074;2022-12-20T07:25:22;10.23;;;9.23;;
1174;SDS011;576;48.418;10.074;2022-12-20T07:27:51;11.60;;;8.80;;
1174;SDS011;576;48.418;10.074;2022-12-20T07:30:20;10.10;;;9.20;;
1174;SDS011;576;48.418;10.074;2022-12-20T07:32:49;11.20;;;10.10;;
1174;SDS011;576;48.418;10.074;2022-12-20T07:35:18;10.23;;;8.90;;
1174;SDS011;576;48.418;10.074;2022-12-20T07:37:46;9.67;;;8.77;;
1174;SDS011;576;48.418;10.074;2022-12-20T07:40:15;10.73;;;9.83;;
1174;SDS011;576;48.418;10.074;2022-12-20T07:42:43;10.13;;;9.23;;
1174;SDS011;576;48.418;10.074;2022-12-20T07:45:14;9.87;;;8.67;;
1174;SDS011;576;48.418;10.074;2022-12-20T07:47:44;9.30;;;8.23;;
1174;SDS011;576;48.418;10.074;2022-12-20T07:50:12;10.60;;;9.63;;
1174;SDS011;576;48.418;10.074;2022-12-20T07:52:41;11.57;;;9.57;;
1174;SDS011;576;48.418;10.074;2022-12-20T07:55:12;11.53;;;10.53;;
1174;SDS011;576;48.418;10.074;2022-12-20T07:57:42;9.33;;;8.43;;
1174;SDS011;576;48.418;10.074;2022-12-20T08:00:14;9.20;;;8.43;;
1174;SDS011;576;48.418;10.074;2022-12-20T08:02:46;9.60;;;8.60;;
1174;SDS011;576;48.418;10.074;2022-12-20T08:05:19;10.57;;;9.53;;
1174;SDS011;576;48.418;10.074;2022-12-20T08:07:48;10.93;;;9.83;;
1174;SDS011;576;48.418;10.074;2022-12-20T08:10:24;9.83;;;8.93;;
1174;SDS011;576;48.418;10.074;2022-12-20T08:12:53;10.13;;;9.17;;
1174;SDS011;576;48.418;10.074;2022-12-20T08:15:22;9.60;;;8.70;;
1174;SDS011;576;48.418;10.074;2022-12-20T08:17:52;8.80;;;8.00;;
1174;SDS011;576;48.418;10.074;2022-12-20T08:20:20;10.83;;;8.83;;
1174;SDS011;576;48.418;10.074;2022-12-20T08:22:48;10.83;;;9.10;;
1174;SDS011;576;48.418;10.074;2022-12-20T08:25:17;9.70;;;9.00;;
1174;SDS011;576;48.418;10.074;2022-12-20T08:27:46;9.50;;;8.57;;
1174;SDS011;576;48.418;10.074;2022-12-20T08:30:15;10.20;;;9.40;;
1174;SDS011;576;48.418;10.074;2022-12-20T08:32:43;9.67;;;8.67;;
1174;SDS011;576;48.418;10.074;2022-12-20T08:35:13;10.43;;;9.37;;
1174;SDS011;576;48.418;10.074;2022-12-20T08:37:41;10.17;;;9.17;;
1174;SDS011;576;48.418;10.074;2022-12-20T08:40:10;10.30;;;9.40;;
1174;SDS011;576;48.418;10.074;2022-12-20T08:42:38;11.20;;;10.10;;
1174;SDS011;576;48.418;10.074;2022-12-20T08:45:07;10.60;;;8.50;;
1174;SDS011;576;48.418;10.074;2022-12-20T08:47:35;9.77;;;8.87;;
1174;SDS011;576;48.418;10.074;2022-12-20T08:50:04;9.77;;;8.97;;
1174;SDS011;576;48.418;10.074;2022-12-20T08:52:34;9.60;;;8.70;;
1174;SDS011;576;48.418;10.074;2022-12-20T08:55:02;10.10;;;9.10;;
1174;SDS011;576;48.418;10.074;2022-12-20T08:57:31;9.23;;;8.43;;
1174;SDS011;576;48.418;10.074;2022-12-20T09:00:00;9.80;;;9.00;;
1174;SDS011;576;48.418;10.074;2022-12-20T09:02:29;9.20;;;8.40;;
1174;SDS011;576;48.418;10.074;2022-12-20T09:04:57;9.97;;;9.17;;
1174;SDS011;576;48.418;10.074;2022-12-20T09:07:26;8.87;;;8.07;;
1174;SDS011;576;48.418;10.074;2022-12-20T09:09:56;7.90;;;7.30;;
1174;SDS011;576;48.418;10.074;2022-12-20T09:12:24;11.00;;;10.00;;
1174;SDS011;576;48.418;10.074;2022-12-20T09:14:52;9.80;;;9.00;;
1174;SDS011;576;48.418;10.074;2022-12-20T09:17:20;9.80;;;9.00;;
1174;SDS011;576;48.418;10.074;2022-12-20T09:19:49;8.90;;;8.10;;
1174;SDS011;576;48.418;10.074;2022-12-20T09:22:17;8.80;;;8.00;;
1174;SDS011;576;48.418;10.074;2022-12-20T09:24:45;10.00;;;8.80;;
1174;SDS011;576;48.418;10.074;2022-12-20T09:27:14;9.60;;;8.70;;
1174;SDS011;576;48.418;10.074;2022-12-20T09:29:43;8.37;;;7.67;;
1174;SDS011;576;48.418;10.074;2022-12-20T09:32:11;8.93;;;8.13;;
1174;SDS011;576;48.418;10.074;2022-12-20T09:34:39;9.03;;;8.10;;
1174;SDS011;576;48.418;10.074;2022-12-20T09:37:07;9.83;;;9.00;;
1174;SDS011;576;48.418;10.074;2022-12-20T09:39:36;7.70;;;7.13;;
1174;SDS011;576;48.418;10.074;2022-12-20T09:42:05;8.87;;;8.17;;
1174;SDS011;576;48.418;10.074;2022-12-20T09:44:37;8.60;;;7.90;;
1174;SDS011;576;48.418;10.074;2022-12-20T09:47:09;9.43;;;8.53;;
1174;SDS011;576;48.418;10.074;2022-12-20T09:49:44;9.40;;;8.60;;
1174;SDS011;576;48.418;10.074;2022-12-20T09:52:20;10.50;;;7.87;;
1174;SDS011;576;48.418;10.074;2022-12-20T09:54:57;9.00;;;8.30;;
1174;SDS011;576;48.418;10.074;2022-12-20T09:57:33;8.87;;;7.97;;
1174;SDS011;576;48.418;10.074;2022-12-20T10:02:46;8.23;;;7.43;;
1174;SDS011;576;48.418;10.074;2022-12-20T10:05:37;9.13;;;8.33;;
1174;SDS011;576;48.418;10.074;2022-12-20T10:08:14;7.60;;;7.00;;
1174;SDS011;576;48.418;10.074;2022-12-20T10:10:53;9.00;;;8.10;;
1174;SDS011;576;48.418;10.074;2022-12-20T10:13:33;8.87;;;8.07;;
1174;SDS011;576;48.418;10.074;2022-12-20T10:16:15;7.90;;;7.23;;
1174;SDS011;576;48.418;10.074;2022-12-20T10:18:56;7.90;;;7.20;;
1174;SDS011;576;48.418;10.074;2022-12-20T10:21:36;8.33;;;7.63;;
1174;SDS011;576;48.418;10.074;2022-12-20T10:24:13;8.93;;;8.03;;
1174;SDS011;576;48.418;10.074;2022-12-20T10:26:44;9.00;;;8.03;;
1174;SDS011;576;48.418;10.074;2022-12-20T10:29:15;8.20;;;7.53;;
1174;SDS011;576;48.418;10.074;2022-12-20T10:31:45;7.60;;;6.90;;
1174;SDS011;576;48.418;10.074;2022-12-20T10:34:14;8.50;;;7.80;;
1174;SDS011;576;48.418;10.074;2022-12-20T10:36:42;8.60;;;7.80;;
1174;SDS011;576;48.418;10.074;2022-12-20T10:39:10;8.60;;;7.80;;
1174;SDS011;576;48.418;10.074;2022-12-20T10:41:46;7.90;;;7.20;;
1174;SDS011;576;48.418;10.074;2022-12-20T10:44:17;6.90;;;6.30;;
1174;SDS011;576;48.418;10.074;2022-12-20T10:46:52;8.10;;;7.30;;
1174;SDS011;576;48.418;10.074;2022-12-20T10:49:26;7.93;;;7.23;;
1174;SDS011;576;48.418;10.074;2022-12-20T10:51:58;8.07;;;7.47;;
1174;SDS011;576;48.418;10.074;2022-12-20T10:54:29;8.20;;;7.50;;
1174;SDS011;576;48.418;10.074;2022-12-20T10:56:59;6.93;;;6.33;;
1174;SDS011;576;48.418;10.074;2022-12-20T10:59:38;7.60;;;7.00;;
1174;SDS011;576;48.418;10.074;2022-12-20T11:02:20;7.67;;;6.53;;
1174;SDS011;576;48.418;10.074;2022-12-20T11:05:20;8.43;;;7.63;;
1174;SDS011;576;48.418;10.074;2022-12-20T11:07:52;6.40;;;5.90;;
1174;SDS011;576;48.418;10.074;2022-12-20T11:10:43;7.80;;;7.00;;
1174;SDS011;576;48.418;10.074;2022-12-20T11:13:19;7.50;;;6.73;;
1174;SDS011;576;48.418;10.074;2022-12-20T11:15:49;8.50;;;7.53;;
1174;SDS011;576;48.418;10.074;2022-12-20T11:18:26;7.00;;;6.50;;
1174;SDS011;576;48.418;10.074;2022-12-20T11:21:07;10.23;;;7.20;;
1174;SDS011;576;48.418;10.074;2022-12-20T11:23:54;7.30;;;6.70;;
1174;SDS011;576;48.418;10.074;2022-12-20T11:26:32;6.73;;;6.13;;
1174;SDS011;576;48.418;10.074;2022-12-20T11:29:14;6.47;;;5.87;;
1174;SDS011;576;48.418;10.074;2022-12-20T11:31:56;7.37;;;6.77;;
1174;SDS011;576;48.418;10.074;2022-12-20T11:34:35;7.37;;;6.67;;
1174;SDS011;576;48.418;10.074;2022-12-20T11:37:19;7.17;;;6.57;;
1174;SDS011;576;48.418;10.074;2022-12-20T11:40:03;6.60;;;6.10;;
1174;SDS011;576;48.418;10.074;2022-12-20T11:42:42;8.23;;;7.53;;
1174;SDS011;576;48.418;10.074;2022-12-20T11:45:22;7.07;;;6.53;;
1174;SDS011;576;48.418;10.074;2022-12-20T11:51:03;7.33;;;6.83;;
1174;SDS011;576;48.418;10.074;2022-12-20T11:53:44;7.60;;;7.07;;
1174;SDS011;576;48.418;10.074;2022-12-20T11:56:20;8.23;;;7.43;;
1174;SDS011;576;48.418;10.074;2022-12-20T11:58:54;6.50;;;5.90;;
1174;SDS011;576;48.418;10.074;2022-12-20T12:01:28;7.57;;;6.87;;
1174;SDS011;576;48.418;10.074;2022-12-20T12:04:04;7.33;;;6.60;;
1174;SDS011;576;48.418;10.074;2022-12-20T12:06:40;7.00;;;6.40;;
1174;SDS011;576;48.418;10.074;2022-12-20T12:09:14;6.80;;;6.30;;
1174;SDS011;576;48.418;10.074;2022-12-20T12:11:49;6.30;;;5.80;;
1174;SDS011;576;48.418;10.074;2022-12-20T12:14:45;5.73;;;5.23;;
1174;SDS011;576;48.418;10.074;2022-12-20T12:17:20;7.57;;;6.83;;
1174;SDS011;576;48.418;10.074;2022-12-20T12:19:53;7.70;;;6.97;;
1174;SDS011;576;48.418;10.074;2022-12-20T12:22:31;6.83;;;6.23;;
1174;SDS011;576;48.418;10.074;2022-12-20T12:25:03;7.63;;;6.93;;
1174;SDS011;576;48.418;10.074;2022-12-20T12:27:40;7.40;;;6.70;;
1174;SDS011;576;48.418;10.074;2022-12-20T12:30:11;6.80;;;6.20;;
1174;SDS011;576;48.418;10.074;2022-12-20T12:32:40;7.33;;;6.60;;
1174;SDS011;576;48.418;10.074;2022-12-20T12:35:20;9.00;;;6.37;;
1174;SDS011;576;48.418;10.074;2022-12-20T12:38:14;7.70;;;6.90;;
1174;SDS011;576;48.418;10.074;2022-12-20T12:44:19;7.67;;;6.87;;
1174;SDS011;576;48.418;10.074;2022-12-20T12:46:59;7.73;;;6.70;;
1174;SDS011;576;48.418;10.074;2022-12-20T12:49:32;7.70;;;6.63;;
1174;SDS011;576;48.418;10.074;2022-12-20T12:52:02;7.90;;;7.30;;
1174;SDS011;576;48.418;10.074;2022-12-20T12:54:35;7.83;;;6.53;;
1174;SDS011;576;48.418;10.074;2022-12-20T12:57:06;7.93;;;7.10;;
1174;SDS011;576;48.418;10.074;2022-12-20T12:59:40;7.57;;;6.87;;
1174;SDS011;576;48.418;10.074;2022-12-20T13:08:01;8.40;;;6.70;;
1174;SDS011;576;48.418;10.074;2022-12-20T13:13:27;7.53;;;6.83;;
1174;SDS011;576;48.418;10.074;2022-12-20T13:16:11;6.70;;;6.07;;
1174;SDS011;576;48.418;10.074;2022-12-20T13:19:12;7.80;;;6.20;;
1174;SDS011;576;48.418;10.074;2022-12-20T13:21:43;7.93;;;7.13;;
1174;SDS011;576;48.418;10.074;2022-12-20T13:36:01;9.23;;;6.30;;
1174;SDS011;576;48.418;10.074;2022-12-20T13:38:49;5.70;;;5.20;;
1174;SDS011;576;48.418;10.074;2022-12-20T13:41:36;5.87;;;5.43;;
1174;SDS011;576;48.418;10.074;2022-12-20T13:44:19;5.77;;;5.23;;
1174;SDS011;576;48.418;10.074;2022-12-20T13:47:00;6.63;;;5.90;;
1174;SDS011;576;48.418;10.074;2022-12-20T13:49:35;7.43;;;5.67;;
1174;SDS011;576;48.418;10.074;2022-12-20T13:52:06;6.30;;;5.50;;
1174;SDS011;576;48.418;10.074;2022-12-20T13:54:49;5.93;;;5.43;;
1174;SDS011;576;48.418;10.074;2022-12-20T13:57:23;6.30;;;5.70;;
1174;SDS011;576;48.418;10.074;2022-12-20T13:59:58;6.63;;;6.13;;
1174;SDS011;576;48.418;10.074;2022-12-20T14:02:33;7.60;;;7.00;;
1174;SDS011;576;48.418;10.074;2022-12-20T14:05:12;6.60;;;5.90;;
1174;SDS011;576;48.418;10.074;2022-12-20T14:07:44;6.03;;;5.43;;
1174;SDS011;576;48.418;10.074;2022-12-20T14:10:19;6.43;;;5.57;;
1174;SDS011;576;48.418;10.074;2022-12-20T14:12:50;6.83;;;5.00;;
1174;SDS011;576;48.418;10.074;2022-12-20T14:15:25;6.47;;;5.00;;
1174;SDS011;576;48.418;10.074;2022-12-20T14:17:56;5.10;;;4.60;;
1174;SDS011;576;48.418;10.074;2022-12-20T14:20:31;5.67;;;5.17;;
1174;SDS011;576;48.418;10.074;2022-12-20T14:23:02;5.77;;;5.30;;
1174;SDS011;576;48.418;10.074;2022-12-20T14:25:34;5.40;;;5.00;;
1174;SDS011;576;48.418;10.074;2022-12-20T14:28:05;4.87;;;4.47;;
1174;SDS011;576;48.418;10.074;2022-12-20T14:30:53;6.07;;;5.57;;
1174;SDS011;576;48.418;10.074;2022-12-20T14:33:25;6.00;;;5.50;;
1174;SDS011;576;48.418;10.074;2022-12-20T14:35:57;5.10;;;4.70;;
1174;SDS011;576;48.418;10.074;2022-12-20T14:38:35;5.30;;;4.80;;
1174;SDS011;576;48.418;10.074;2022-12-20T14:41:03;5.93;;;5.50;;
1174;SDS011;576;48.418;10.074;2022-12-20T14:43:32;7.57;;;5.10;;
1174;SDS011;576;48.418;10.074;2022-12-20T14:46:12;5.37;;;4.97;;
1174;SDS011;576;48.418;10.074;2022-12-20T14:48:44;6.00;;;4.73;;
1174;SDS011;576;48.418;10.074;2022-12-20T14:51:13;6.03;;;5.10;;
1174;SDS011;576;48.418;10.074;2022-12-20T14:53:47;5.50;;;5.10;;
1174;SDS011;576;48.418;10.074;2022-12-20T14:56:19;4.63;;;4.23;;
1174;SDS011;576;48.418;10.074;2022-12-20T14:59:00;5.53;;;5.13;;
1174;SDS011;576;48.418;10.074;2022-12-20T15:01:33;5.80;;;5.00;;
1174;SDS011;576;48.418;10.074;2022-12-20T15:04:19;6.30;;;5.70;;
1174;SDS011;576;48.418;10.074;2022-12-20T15:06:50;4.90;;;4.30;;
1174;SDS011;576;48.418;10.074;2022-12-20T15:09:19;5.80;;;5.30;;
1174;SDS011;576;48.418;10.074;2022-12-20T15:11:48;6.80;;;4.93;;
1174;SDS011;576;48.418;10.074;2022-12-20T15:14:22;5.73;;;5.20;;
1174;SDS011;576;48.418;10.074;2022-12-20T15:16:59;7.03;;;5.30;;
1174;SDS011;576;48.418;10.074;2022-12-20T15:19:28;5.17;;;4.67;;
1174;SDS011;576;48.418;10.074;2022-12-20T15:21:56;6.30;;;5.70;;
1174;SDS011;576;48.418;10.074;2022-12-20T15:24:25;4.70;;;4.30;;
1174;SDS011;576;48.418;10.074;2022-12-20T15:26:54;5.80;;;5.10;;
1174;SDS011;576;48.418;10.074;2022-12-20T15:29:23;5.30;;;4.53;;
1174;SDS011;576;48.418;10.074;2022-12-20T15:31:56;7.40;;;5.13;;
1174;SDS011;576;48.418;10.074;2022-12-20T15:34:32;5.40;;;4.37;;
1174;SDS011;576;48.418;10.074;2022-12-20T15:37:01;7.10;;;5.30;;
1174;SDS011;576;48.418;10.074;2022-12-20T15:39:31;5.97;;;5.47;;
1174;SDS011;576;48.418;10.074;2022-12-20T15:42:00;7.70;;;5.53;;
1174;SDS011;576;48.418;10.074;2022-12-20T15:44:32;6.07;;;5.47;;
1174;SDS011;576;48.418;10.074;2022-12-20T15:47:02;5.47;;;4.97;;
1174;SDS011;576;48.418;10.074;2022-12-20T15:49:31;5.83;;;4.70;;
1174;SDS011;576;48.418;10.074;2022-12-20T15:51:59;5.47;;;4.97;;
1174;SDS011;576;48.418;10.074;2022-12-20T15:54:28;5.30;;;4.83;;
1174;SDS011;576;48.418;10.074;2022-12-20T15:56:58;5.27;;;4.77;;
1174;SDS011;576;48.418;10.074;2022-12-20T15:59:28;5.13;;;4.73;;
1174;SDS011;576;48.418;10.074;2022-12-20T16:02:19;5.83;;;5.33;;
1174;SDS011;576;48.418;10.074;2022-12-20T16:04:49;5.83;;;5.30;;
1174;SDS011;576;48.418;10.074;2022-12-20T16:07:18;5.50;;;5.00;;
1174;SDS011;576;48.418;10.074;2022-12-20T16:09:46;6.10;;;5.50;;
1174;SDS011;576;48.418;10.074;2022-12-20T16:12:14;6.00;;;4.80;;
1174;SDS011;576;48.418;10.074;2022-12-20T16:14:44;5.70;;;5.20;;
1174;SDS011;576;48.418;10.074;2022-12-20T16:17:13;5.60;;;5.07;;
1174;SDS011;576;48.418;10.074;2022-12-20T16:19:43;4.93;;;4.53;;